Impacts TAF Board INFO
FOR SITUATIONAL AWARENESS. NOT TO BE USED FOR FLIGHT PLANNING PURPOSES.
IDs:

KDTW - Detroit Metro/Wayne, MI, US

Issued at 1123 UTC 22 Nov 2017
Updated at 1435 UTC 22 Nov 2017
Potential Impact None Slight Moderate High
Time1353Z 22/15Z 22/16Z 22/17Z 22/18Z 22/19Z 22/20Z 22/21Z 22/22Z 22/23Z 23/00Z 23/01Z 23/02Z 23/03Z>>
Type OBS PRVL PRVL PRVL PRVL PRVL PRVL PRVL PRVL PRVL PRVL PRVL PRVL PRVL
VIS 10 >6 >6 >6 >6 >6 >6 >6 >6 >6 >6 >6 >6 >6
CIG 120 35 50 50 50 50 -- -- -- -- -- 250 250 250
Cover BKN OVC BKN BKN BKN BKN SCT SCT SCT SCT SCT BKN BKN BKN
FltCat VFR VFR VFR VFR VFR VFR VFR VFR VFR VFR VFR VFR VFR VFR
WX -- -- -- -- -- -- -- -- -- -- -- -- -- --
WDir 300 330 280 280 280 280 240 240 240 240 240 220 220 220
WSpd 9 10 10 10 10 10 8 8 8 8 8 6 6 6
WGst -- -- -- -- -- -- -- -- -- -- -- -- -- --

Raw TAF
KDTW 221123Z 2212/2318 33010KT P6SM OVC035
  FM221600 28010KT P6SM BKN050
  FM222000 24008KT P6SM SCT050
  FM230100 22006KT P6SM BKN250


Raw METAR
KDTW 221353Z 30009KT 10SM SCT040 BKN120 00/M09 A3027 RMK AO2 SLP257 T00001089
KDTW 221253Z 33008KT 10SM BKN035 BKN120 M01/M09 A3025 RMK AO2 SLP251 T10111094
KDTW 221153Z 31011KT 9SM OVC035 M01/M08 A3023 RMK AO2 SNE40 SLP242 P0000 60000 70007 T10061078 10017 21006 53028

METAR Board
Radar Display
Forecast Discussion

FOR SITUATIONAL AWARENESS. NOT TO BE USED FOR FLIGHT PLANNING PURPOSES.